Latest Weather Observations for Bradshaw

IDD60801

Issued at 11:01 pm CST Monday 27 April 2015 (issued every 30 minutes, with the page automatically refreshed every 10 minutes)

About weather observations | Map of weather stations | Latest weather observations for NT | Other Formats
Station Details ID: 014954 Name: BRADSHAW Lat: -14.94 Lon: 130.81 Height: 75.0 m
Data from the previous 72 hours. | See also: Recent months at Bradshaw
Date/Time
CST
Temp
°C
App
Temp
°C
Dew
Point
Rel
Hum
%
Delta-T
°C
Wind Press
QNH
hPa
Press
MSL
hPa
Rain
since 9 am
mm
Dir
 
Spd
km/h
Gust
km/h
Spd
kts
Gust
kts
27/11:00pm 19.9 18.2 7.6 45 6.3 NW 6 7 3 4 1016.4 - 0.0
27/10:30pm 18.5 16.6 9.0 54 5.0 NE 9 11 5 6 1016.5 - 0.0
27/10:00pm 18.3 16.7 8.8 54 4.9 NE 7 9 4 5 1016.6 - 0.0
27/09:30pm 18.8 17.1 8.5 51 5.3 NNE 7 7 4 4 1016.6 - 0.0
27/09:00pm 19.5 18.3 8.2 48 5.9 NNE 4 7 2 4 1016.4 1016.0 0.0
27/08:30pm 20.8 19.4 7.1 41 7.0 NE 4 6 2 3 1016.0 - 0.0
27/08:00pm 24.1 20.9 5.0 29 9.6 ENE 11 13 6 7 1015.4 - 0.0
27/07:30pm 25.2 22.2 4.3 26 10.5 ENE 9 11 5 6 1014.9 - 0.0
27/07:00pm 27.0 23.5 3.5 22 11.7 ENE 11 11 6 6 1014.5 - 0.0
27/06:30pm 29.0 25.3 2.3 18 13.2 E 11 15 6 8 1014.1 - 0.0
27/06:00pm 30.9 26.6 1.3 15 14.6 ESE 13 20 7 11 1013.8 1013.3 0.0
27/05:30pm 31.7 26.6 1.0 14 15.1 E 17 26 9 14 1013.4 - 0.0
27/05:00pm 32.3 27.5 0.4 13 15.6 ESE 15 20 8 11 1013.1 - 0.0
27/04:30pm 32.6 28.2 0.6 13 15.8 SSE 13 20 7 11 1012.9 - 0.0
27/04:00pm 32.9 27.7 -0.2 12 16.1 ESE 17 24 9 13 1012.8 - 0.0
27/03:30pm 33.3 27.7 0.1 12 16.3 E 19 30 10 16 1012.8 - 0.0
27/03:00pm 32.4 27.1 -0.6 12 15.9 SE 17 28 9 15 1013.1 1012.6 0.0
27/02:30pm 33.1 28.3 -0.1 12 16.2 ESE 15 24 8 13 1013.4 - 0.0
27/02:00pm 32.3 27.7 -0.7 12 15.9 ENE 13 24 7 13 1013.9 - 0.0
27/01:30pm 32.1 25.8 -0.9 12 15.8 ESE 22 32 12 17 1014.3 - 0.0
27/01:00pm 31.8 25.9 -1.1 12 15.7 ESE 20 30 11 16 1014.6 - 0.0
27/12:30pm 31.3 25.5 -1.5 12 15.5 E 19 28 10 15 1015.0 - 0.0
27/12:00pm 30.8 24.9 -0.8 13 15.0 E 20 32 11 17 1015.5 1015.1 0.0
27/11:30am 30.4 25.0 -1.1 13 14.8 E 17 26 9 14 1016.1 - 0.0
27/11:00am 29.4 24.2 0.1 15 14.0 ESE 17 24 9 13 1016.6 - 0.0
27/10:30am 28.7 23.2 0.4 16 13.5 E 19 30 10 16 1017.0 - 0.0
27/10:00am 27.7 22.3 1.2 18 12.8 ESE 19 26 10 14 1017.2 - 0.0
27/09:30am 26.1 20.5 1.4 20 11.8 E 20 32 11 17 1017.1 - 0.0
27/09:00am 25.0 19.4 1.2 21 11.2 E 20 30 11 16 1017.1 1016.7 0.0
27/08:30am 23.9 18.9 1.5 23 10.5 E 17 24 9 13 1017.0 - 0.0
27/08:00am 22.1 19.1 1.7 26 9.5 NE 7 13 4 7 1016.8 - 0.0
27/07:30am 20.1 17.2 2.5 31 8.2 E 7 9 4 5 1016.5 - 0.0
27/07:00am 19.5 16.1 1.9 31 8.1 E 9 15 5 8 1016.1 - 0.0
27/06:30am 19.5 15.8 2.4 32 7.9 ENE 11 17 6 9 1015.6 - 0.0
27/06:00am 19.1 15.5 2.9 34 7.5 ENE 11 17 6 9 1015.5 1015.1 0.0
27/05:30am 16.8 14.6 5.1 46 5.6 NE 6 11 3 6 1015.4 - 0.0
27/05:00am 16.6 14.6 7.0 53 4.8 N 7 9 4 5 1015.5 - 0.0
27/04:30am 14.2 12.7 8.4 68 2.9 N 6 9 3 5 1015.4 - 0.0
27/04:00am 14.8 14.1 8.5 66 3.2 NW 2 7 1 4 1015.2 - 0.0
27/03:30am 15.2 15.0 8.9 66 3.2 CALM 0 0 0 0 1015.3 - 0.0
27/03:00am 15.4 14.0 8.9 65 3.3 NW 6 7 3 4 1015.5 1015.1 0.0
27/02:30am 15.8 15.7 9.5 66 3.3 CALM 0 0 0 0 1015.3 - 0.0
27/02:00am 16.1 15.7 9.8 66 3.3 NW 2 7 1 4 1015.5 - 0.0
27/01:30am 16.8 16.5 8.8 59 4.1 CALM 0 0 0 0 1015.5 - 0.0
27/01:00am 18.9 18.7 9.1 53 5.2 CALM 0 0 0 0 1015.8 - 0.0
27/12:30am 18.0 16.5 8.6 54 4.9 WSW 6 9 3 5 1015.9 - 0.0
27/12:00am 20.9 20.2 8.5 45 6.5 SW 2 6 1 3 1015.7 1015.3 0.0
 
Date/Time
CST
Temp
°C
App
Temp
°C
Dew
Point
Rel
Hum
%
Delta-T
°C
Wind Press
QNH
hPa
Press
MSL
hPa
Rain
since 9 am
mm
Dir
 
Spd
km/h
Gust
km/h
Spd
kts
Gust
kts
26/11:30pm 21.5 20.7 8.1 42 7.0 NNE 2 6 1 3 1015.7 - 0.0
26/11:00pm 21.1 20.7 8.4 44 6.7 CALM 0 0 0 0 1015.8 - 0.0
26/10:30pm 22.2 19.6 7.6 39 7.6 ENE 11 13 6 7 1016.1 - 0.0
26/10:00pm 22.6 19.9 7.2 37 8.0 ENE 11 13 6 7 1016.1 - 0.0
26/09:30pm 23.4 20.6 7.1 35 8.5 ENE 11 13 6 7 1016.1 - 0.0
26/09:00pm 23.9 21.1 7.1 34 8.8 ENE 11 15 6 8 1015.9 1015.5 0.0
26/08:30pm 23.6 21.3 7.3 35 8.5 ENE 9 13 5 7 1015.5 - 0.0
26/08:00pm 24.3 23.6 7.0 33 9.0 CALM 0 7 0 4 1015.0 - 0.0
26/07:30pm 25.5 24.6 6.2 29 10.0 CALM 0 0 0 0 1014.4 - 0.0
26/07:00pm 27.0 24.1 4.7 24 11.4 SE 9 11 5 6 1014.0 - 0.0
26/06:30pm 28.9 25.2 4.4 21 12.6 ESE 13 17 7 9 1013.7 - 0.0
26/06:00pm 30.8 26.2 3.8 18 13.9 ESE 17 24 9 13 1013.2 1012.7 0.0
26/05:30pm 31.8 27.6 3.8 17 14.5 ESE 15 20 8 11 1012.9 - 0.0
26/05:00pm 32.4 28.1 3.4 16 14.9 ESE 15 24 8 13 1012.6 - 0.0
26/04:30pm 32.7 27.9 2.7 15 15.3 SE 17 24 9 13 1012.5 - 0.0
26/04:00pm 32.7 27.9 2.7 15 15.3 ESE 17 26 9 14 1012.5 - 0.0
26/03:30pm 33.5 29.0 2.4 14 15.9 E 15 28 8 15 1012.5 - 0.0
26/03:00pm 33.2 28.5 3.1 15 15.5 ESE 17 26 9 14 1012.6 1012.1 0.0
26/02:30pm 32.4 27.0 2.5 15 15.2 ENE 20 28 11 15 1013.1 - 0.0
26/01:00pm 31.9 27.7 3.8 17 14.5 SSE 15 24 8 13 1014.6 - 0.0
26/12:30pm 31.6 26.6 3.6 17 14.4 SE 19 30 10 16 1015.2 - 0.0
26/12:00pm 30.8 26.2 3.8 18 13.9 E 17 26 9 14 1015.7 1015.3 0.0
26/11:30am 30.1 26.2 3.2 18 13.6 E 13 20 7 11 1016.3 - 0.0
26/10:30am 27.9 23.3 3.6 21 12.2 ESE 17 28 9 15 1017.2 - 0.0
26/10:00am 27.2 22.1 3.0 21 12.0 ESE 19 32 10 17 1017.3 - 0.0
26/09:30am 26.4 21.1 3.0 22 11.5 ESE 20 32 11 17 1017.4 - 0.0
26/09:00am 25.3 18.8 2.7 23 11.0 ESE 26 43 14 23 1017.3 1016.9 0.0
26/08:30am 24.7 19.1 3.4 25 10.4 ESE 22 37 12 20 1017.0 - 0.0
26/08:00am 23.8 20.2 3.2 26 10.0 SE 11 20 6 11 1016.7 - 0.0
26/07:30am 20.4 18.3 4.0 34 7.9 WSW 4 9 2 5 1016.2 - 0.0
26/07:00am 19.1 16.5 4.1 37 7.2 W 7 11 4 6 1015.7 - 0.0
26/06:30am 19.7 17.1 3.4 34 7.7 WSW 6 11 3 6 1015.2 - 0.0
26/06:00am 20.8 18.2 3.1 31 8.4 SSW 6 7 3 4 1015.1 1014.7 0.0
26/05:30am 22.1 19.3 3.3 29 9.0 SSE 7 11 4 6 1014.8 - 0.0
26/05:00am 21.9 19.7 3.1 29 9.0 S 4 11 2 6 1014.7 - 0.0
26/04:30am 22.9 20.0 2.4 26 9.7 E 7 13 4 7 1014.5 - 0.0
26/04:00am 23.8 20.1 2.6 25 10.2 ESE 11 19 6 10 1014.2 - 0.0
26/03:30am 24.0 20.0 2.8 25 10.2 ESE 13 26 7 14 1014.0 - 0.0
26/03:00am 24.4 20.7 2.5 24 10.5 ESE 11 20 6 11 1013.6 1013.1 0.0
26/02:30am 24.6 21.0 2.7 24 10.6 SE 11 20 6 11 1013.5 - 0.0
26/02:00am 25.2 21.6 3.2 24 10.8 SE 11 24 6 13 1013.7 - 0.0
26/01:30am 23.6 21.2 6.8 34 8.7 ESE 9 22 5 12 1013.7 - 0.0
26/01:00am 20.1 18.9 9.4 50 5.7 NNW 6 7 3 4 1013.8 - 0.0
26/12:30am 20.0 19.0 10.4 54 5.2 NW 6 9 3 5 1013.9 - 0.0
26/12:00am 19.7 18.6 10.1 54 5.2 SW 6 11 3 6 1014.0 1013.5 0.0
 
Date/Time
CST
Temp
°C
App
Temp
°C
Dew
Point
Rel
Hum
%
Delta-T
°C
Wind Press
QNH
hPa
Press
MSL
hPa
Rain
since 9 am
mm
Dir
 
Spd
km/h
Gust
km/h
Spd
kts
Gust
kts
25/11:30pm 21.6 20.9 10.1 48 6.3 W 4 7 2 4 1013.9 - 0.0
25/11:00pm 21.1 21.2 10.3 50 5.9 CALM 0 0 0 0 1013.9 - 0.0
25/10:30pm 22.1 21.9 10.3 47 6.5 N 2 6 1 3 1014.0 - 0.0
25/10:00pm 21.6 21.0 10.4 49 6.1 N 4 6 2 3 1013.9 - 0.0
25/09:30pm 23.4 21.8 8.7 39 7.9 NE 7 7 4 4 1013.7 - 0.0
25/09:00pm 24.3 22.7 8.7 37 8.4 ENE 7 9 4 5 1013.6 1013.1 0.0
25/08:30pm 25.8 24.0 7.9 32 9.6 E 7 9 4 5 1013.3 - 0.0
25/08:00pm 27.4 25.0 6.8 27 10.9 E 9 11 5 6 1012.6 - 0.0
25/07:30pm 28.6 26.1 6.7 25 11.7 E 9 11 5 6 1012.0 - 0.0
25/07:00pm 29.3 26.7 6.0 23 12.3 ENE 9 11 5 6 1011.5 - 0.0
25/06:30pm 31.5 27.9 5.1 19 13.9 E 13 19 7 10 1011.1 - 0.0
25/06:00pm 33.5 29.4 4.2 16 15.4 E 15 20 8 11 1010.7 1010.2 0.0
25/05:30pm 34.6 30.3 3.2 14 16.3 E 15 24 8 13 1010.3 - 0.0
25/05:00pm 35.1 30.1 3.6 14 16.5 SE 19 28 10 15 1010.0 - 0.0
25/04:30pm 35.6 30.9 3.0 13 17.0 SE 17 26 9 14 1009.9 - 0.0
25/04:00pm 35.8 31.1 3.1 13 17.1 E 17 28 9 15 1009.8 - 0.0
25/03:30pm 35.9 30.6 2.1 12 17.4 SE 19 28 10 15 1010.1 - 0.0
25/03:00pm 35.9 30.4 2.1 12 17.4 SE 20 30 11 16 1010.1 1009.6 0.0
25/02:30pm 36.3 31.1 2.4 12 17.6 ESE 19 33 10 18 1010.4 - 0.0
25/02:00pm 35.2 29.8 1.5 12 17.1 SE 19 26 10 14 1010.7 - 0.0
25/01:30pm 35.4 29.9 0.5 11 17.5 E 19 32 10 17 1011.2 - 0.0
25/01:00pm 35.0 29.2 0.2 11 17.3 SE 20 30 11 16 1011.6 - 0.0
25/12:30pm 34.7 29.1 -0.1 11 17.2 ESE 19 33 10 18 1012.1 - 0.0
25/12:00pm 33.8 28.1 -0.7 11 16.8 E 19 30 10 16 1012.5 1012.0 0.0
25/11:30am 33.5 27.6 -1.0 11 16.6 E 20 37 11 20 1013.0 - 0.0
25/11:00am 33.0 27.2 -0.2 12 16.2 E 20 32 11 17 1013.3 - 0.0
25/10:30am 32.5 27.2 1.6 14 15.5 E 19 28 10 15 1013.4 - 0.0
25/10:00am 31.1 26.2 2.3 16 14.5 E 17 26 9 14 1013.6 - 0.0
25/09:30am 29.9 24.9 1.4 16 14.0 E 17 30 9 16 1013.4 - 0.0
25/09:00am 28.9 25.2 4.4 21 12.6 E 13 20 7 11 1013.3 1012.8 0.0
25/08:30am 26.1 24.2 7.7 31 9.8 S 7 9 4 5 1013.1 - 0.0
25/08:00am 23.0 23.4 11.4 48 6.5 CALM 0 0 0 0 1012.6 - 0.0
25/07:30am 18.5 19.1 12.0 66 3.6 CALM 0 0 0 0 1012.3 - 0.0
25/07:00am 16.8 17.3 11.5 71 2.9 CALM 0 0 0 0 1012.0 - 0.0
25/06:30am 17.3 17.9 11.8 70 3.0 CALM 0 0 0 0 1011.8 - 0.0
25/06:00am 17.5 18.0 11.5 68 3.3 CALM 0 0 0 0 1011.7 1011.2 0.0
25/05:30am 17.9 18.4 11.7 67 3.4 CALM 0 0 0 0 1011.5 - 0.0
25/05:00am 17.8 18.3 11.6 67 3.4 CALM 0 0 0 0 1011.6 - 0.0
25/04:30am 18.8 19.3 11.6 63 4.0 CALM 0 0 0 0 1011.5 - 0.0
25/04:00am 18.8 19.3 11.6 63 4.0 CALM 0 0 0 0 1011.5 - 0.0
25/03:30am 19.1 18.8 11.4 61 4.2 NNW 4 7 2 4 1011.5 - 0.0
25/03:00am 19.5 18.7 11.8 61 4.3 N 7 7 4 4 1011.6 1011.1 0.0
25/02:30am 19.8 20.1 11.0 57 4.8 CALM 0 0 0 0 1011.7 - 0.0
25/02:00am 20.5 20.6 11.4 56 5.0 N 2 6 1 3 1011.8 - 0.0
25/01:30am 21.2 20.3 10.7 51 5.8 N 6 7 3 4 1012.1 - 0.0
25/01:00am 21.8 22.0 10.6 49 6.2 CALM 0 0 0 0 1012.3 - 0.0
25/12:30am 23.7 22.2 10.7 44 7.2 N 9 9 5 5 1012.4 - 0.0
25/12:00am 23.1 22.2 11.2 47 6.7 N 7 9 4 5 1012.5 1012.0 0.0
 
Date/Time
CST
Temp
°C
App
Temp
°C
Dew
Point
Rel
Hum
%
Delta-T
°C
Wind Press
QNH
hPa
Press
MSL
hPa
Rain
since 9 am
mm
Dir
 
Spd
km/h
Gust
km/h
Spd
kts
Gust
kts
24/11:30pm 24.6 24.6 11.2 43 7.6 N 2 7 1 4 1012.6 - 0.0

Other Formats:

Comma delimited format used in spreadsheet applications
http://www.bom.gov.au/fwo/IDD60801/IDD60801.94130.axf

JavaScript Object Notation format (JSON) in row-major order
http://www.bom.gov.au/fwo/IDD60801/IDD60801.94130.json